CheckWX is a tool to help pilots better visualize weather data.  It is not intended as a substitute for an official pre-flight weather briefing.

16:28:32 UTC

KWJF TAF
General Wm J Fox Airfield Airport
Lancaster, California, USA
KWJF 161312Z 1613/1712 29012KT P6SM FEW080 SCT200 FM161600 24015KT P6SM SCT080 BKN200 FM162000 23021G31KT P6SM SCT080 BKN200 FM170300 26014G20KT P6SM SCT200

Sep-16@
13:00 UTC

Sep-16 @ 13:00 UTC

Sep-16@
16:00 UTC

Sep-16 @ 16:00 UTC

KWJF 161312Z 1613/1712 29012KT P6SM FEW080 SCT200

Expired

Wind
  • 290° at 12 KTS
Cloud Levels
  • Few at 8,000' AGL
  • Scattered at 20,000' AGL

Sep-16@
16:00 UTC

Sep-16 @ 16:00 UTC

Sep-16@
20:00 UTC

Sep-16 @ 20:00 UTC

FM161600 24015KT P6SM SCT080 BKN200

From

From Standard forecast or significant change

Wind
  • 240° at 15 KTS
Cloud Levels
  • Scattered at 8,000' AGL
  • Broken at 20,000' AGL

Sep-16@
20:00 UTC

Sep-16 @ 20:00 UTC

Sep-17@
03:00 UTC

Sep-17 @ 03:00 UTC

FM162000 23021G31KT P6SM SCT080 BKN200

From

From Standard forecast or significant change

Wind
  • 230° at 21 KTS
  • {Gusting to 31 KTS
Cloud Levels
  • Scattered at 8,000' AGL
  • Broken at 20,000' AGL

Sep-17@
03:00 UTC

Sep-17 @ 03:00 UTC

Sep-17@
12:00 UTC

Sep-17 @ 12:00 UTC

FM170300 26014G20KT P6SM SCT200

From

From Standard forecast or significant change

Wind
  • 260° at 14 KTS
  • {Gusting to 20 KTS
Cloud Levels
  • Scattered at 20,000' AGL